createdAt,value
2022-12-11T00:01:53.645Z,14.00
2022-12-11T00:04:24.210Z,13.03
2022-12-11T00:06:54.430Z,14.17
2022-12-11T00:09:24.682Z,13.17
2022-12-11T00:11:57.495Z,13.53
2022-12-11T00:14:27.732Z,12.53
2022-12-11T00:16:58.017Z,13.97
2022-12-11T00:19:28.358Z,13.37
2022-12-11T00:21:58.623Z,12.03
2022-12-11T00:24:28.884Z,13.73
2022-12-11T00:27:02.439Z,13.97
2022-12-11T00:29:33.511Z,13.07
2022-12-11T00:32:03.857Z,13.57
2022-12-11T00:34:34.173Z,13.37
2022-12-11T00:37:05.915Z,14.70
2022-12-11T00:39:36.202Z,15.77
2022-12-11T00:42:09.181Z,13.30
2022-12-11T00:44:39.392Z,15.70
2022-12-11T00:47:11.020Z,16.03
2022-12-11T00:49:46.474Z,15.20
2022-12-11T00:52:20.154Z,15.50
2022-12-11T00:54:50.486Z,15.93
2022-12-11T00:57:23.320Z,15.53
2022-12-11T00:59:53.611Z,15.13
2022-12-11T01:02:25.986Z,15.50
2022-12-11T01:04:56.424Z,14.77
2022-12-11T01:07:26.671Z,15.73
2022-12-11T01:10:09.420Z,15.03
2022-12-11T01:12:42.031Z,13.97
2022-12-11T01:15:13.554Z,16.87
2022-12-11T01:17:43.529Z,15.93
2022-12-11T01:20:14.463Z,13.93
2022-12-11T01:22:44.370Z,16.20
2022-12-11T01:25:14.451Z,12.67
2022-12-11T01:27:46.970Z,13.53
2022-12-11T01:30:17.150Z,14.60
2022-12-11T01:32:47.346Z,15.27
2022-12-11T01:35:17.715Z,13.90
2022-12-11T01:37:48.033Z,13.87
2022-12-11T01:40:19.780Z,13.20
2022-12-11T01:42:52.566Z,14.17
2022-12-11T01:45:36.542Z,13.47
2022-12-11T01:48:10.457Z,14.10
2022-12-11T01:50:45.166Z,12.00
2022-12-11T01:53:20.089Z,15.20
2022-12-11T01:55:51.167Z,13.40
2022-12-11T01:58:26.267Z,12.77
2022-12-11T02:00:57.417Z,12.43
2022-12-11T02:03:27.964Z,13.03
2022-12-11T02:05:58.280Z,14.27
2022-12-11T02:08:28.315Z,14.37
2022-12-11T02:11:08.313Z,15.20
2022-12-11T02:13:47.600Z,13.33
2022-12-11T02:16:27.527Z,13.87
2022-12-11T02:19:03.251Z,13.30
2022-12-11T02:21:40.245Z,13.27
2022-12-11T02:24:33.673Z,12.67
2022-12-11T02:27:23.007Z,13.30
2022-12-11T02:29:59.876Z,14.17
2022-12-11T02:32:36.662Z,13.50
2022-12-11T02:35:14.380Z,14.40
2022-12-11T02:37:47.813Z,14.17
2022-12-11T02:40:22.028Z,13.03
2022-12-11T02:42:53.343Z,12.45
2022-12-11T02:45:29.059Z,13.70
2022-12-11T02:48:01.363Z,12.50
2022-12-11T02:50:32.738Z,12.63
2022-12-11T02:53:05.517Z,11.87
2022-12-11T02:55:36.481Z,11.43
2022-12-11T02:58:10.987Z,11.37
2022-12-11T03:03:13.206Z,12.07
2022-12-11T03:05:46.184Z,12.13
2022-12-11T03:08:17.424Z,12.87
2022-12-11T03:10:48.147Z,12.67
2022-12-11T03:13:22.869Z,12.07
2022-12-11T03:16:10.273Z,11.63
2022-12-11T03:18:47.377Z,13.10
2022-12-11T03:21:22.085Z,13.70
2022-12-11T03:23:58.153Z,14.23
2022-12-11T03:26:28.372Z,13.43
2022-12-11T03:29:01.337Z,14.20
2022-12-11T03:31:40.541Z,12.33
2022-12-11T03:34:17.508Z,12.30
2022-12-11T03:36:50.406Z,11.10
2022-12-11T03:39:24.605Z,13.10
2022-12-11T03:41:56.533Z,14.80
2022-12-11T03:44:27.539Z,14.53
2022-12-11T03:47:02.132Z,15.23
2022-12-11T03:49:37.218Z,14.57
2022-12-11T03:52:08.970Z,12.00
2022-12-11T03:54:40.680Z,13.70
2022-12-11T03:57:13.078Z,14.60
2022-12-11T03:59:43.028Z,14.67
2022-12-11T04:02:15.549Z,13.43
2022-12-11T04:04:46.030Z,12.80
2022-12-11T04:07:15.929Z,15.47
2022-12-11T04:09:45.835Z,13.50
2022-12-11T04:12:15.995Z,13.50
2022-12-11T04:14:58.656Z,14.73
2022-12-11T04:17:43.845Z,14.10
2022-12-11T04:20:27.149Z,13.63
2022-12-11T04:23:09.571Z,14.50
2022-12-11T04:25:39.817Z,15.13
2022-12-11T04:28:09.682Z,15.90
2022-12-11T04:30:39.882Z,14.10
2022-12-11T04:33:12.323Z,16.00
2022-12-11T04:35:42.241Z,13.97
2022-12-11T04:38:12.148Z,15.27
2022-12-11T04:40:42.022Z,14.43
2022-12-11T04:43:12.017Z,14.87
2022-12-11T04:45:42.218Z,13.57
2022-12-11T04:48:14.663Z,12.47
2022-12-11T04:50:44.535Z,14.03
2022-12-11T04:53:14.392Z,12.87
2022-12-11T04:55:44.277Z,12.67
2022-12-11T04:58:14.454Z,14.63
2022-12-11T05:00:44.966Z,12.27
2022-12-11T05:03:17.594Z,14.63
2022-12-11T05:05:51.227Z,12.63
2022-12-11T05:08:21.407Z,12.55
2022-12-11T05:10:58.432Z,13.80
2022-12-11T05:13:28.656Z,13.03
2022-12-11T05:15:59.279Z,13.57
2022-12-11T05:18:31.827Z,12.87
2022-12-11T05:21:03.445Z,13.10
2022-12-11T05:23:33.720Z,15.07
2022-12-11T05:26:06.812Z,13.43
2022-12-11T05:28:38.641Z,13.40
2022-12-11T05:31:11.597Z,15.23
2022-12-11T05:33:44.477Z,15.37
2022-12-11T05:36:19.488Z,13.93
2022-12-11T05:38:49.692Z,13.70
2022-12-11T05:41:21.833Z,15.97
2022-12-11T05:43:52.070Z,13.03
2022-12-11T05:46:24.735Z,12.90
2022-12-11T05:48:59.756Z,14.53
2022-12-11T05:51:30.201Z,14.67
2022-12-11T05:54:00.979Z,16.40
2022-12-11T05:56:32.845Z,18.93
2022-12-11T05:59:04.190Z,19.53
2022-12-11T06:01:37.337Z,17.97
2022-12-11T06:04:11.351Z,17.67
2022-12-11T06:06:43.944Z,12.80
2022-12-11T06:09:16.405Z,16.20
2022-12-11T06:11:46.756Z,13.87
2022-12-11T06:14:16.982Z,14.37
2022-12-11T06:16:46.930Z,14.73
2022-12-11T06:19:20.279Z,12.20
2022-12-11T06:21:50.238Z,12.47
2022-12-11T06:24:20.216Z,11.77
2022-12-11T06:26:50.401Z,11.53
2022-12-11T06:29:20.280Z,11.83
2022-12-11T06:31:53.064Z,12.40
2022-12-11T06:34:25.678Z,12.17
2022-12-11T06:36:55.544Z,12.20
2022-12-11T06:39:25.678Z,12.93
2022-12-11T06:41:55.790Z,12.93
2022-12-11T06:44:25.749Z,11.63
2022-12-11T06:46:55.568Z,12.70
2022-12-11T06:49:28.166Z,14.43
2022-12-11T06:51:58.551Z,13.30
2022-12-11T06:54:29.571Z,13.83
2022-12-11T06:56:59.450Z,13.13
2022-12-11T06:59:29.435Z,13.83
2022-12-11T07:01:59.659Z,15.47
2022-12-11T07:04:32.218Z,14.07
2022-12-11T07:07:02.089Z,13.03
2022-12-11T07:09:32.318Z,14.07
2022-12-11T07:12:04.010Z,13.30
2022-12-11T07:14:35.287Z,12.73
2022-12-11T07:17:05.677Z,12.33
2022-12-11T07:19:38.488Z,13.33
2022-12-11T07:22:08.711Z,14.43
2022-12-11T07:24:39.207Z,13.90
2022-12-11T07:27:09.623Z,14.73
2022-12-11T07:29:39.879Z,15.03
2022-12-11T07:32:10.270Z,14.23
2022-12-11T07:34:46.057Z,15.13
2022-12-11T07:37:20.709Z,14.10
2022-12-11T07:39:50.917Z,24.30
2022-12-11T07:42:21.075Z,26.77
2022-12-11T07:44:51.297Z,15.90
2022-12-11T07:47:21.568Z,31.40
2022-12-11T07:49:54.440Z,17.30
2022-12-11T07:52:25.742Z,19.00
2022-12-11T07:54:55.901Z,18.40
2022-12-11T07:57:26.103Z,14.83
2022-12-11T07:59:56.297Z,12.50
2022-12-11T08:02:26.728Z,12.60
2022-12-11T08:04:59.671Z,11.90
2022-12-11T08:07:30.094Z,12.13
2022-12-11T08:10:00.260Z,13.60
2022-12-11T08:12:30.532Z,12.40
2022-12-11T08:15:01.820Z,10.17
2022-12-11T08:17:38.273Z,12.43
2022-12-11T08:20:14.140Z,13.17
2022-12-11T08:22:44.347Z,15.45
2022-12-11T08:25:15.626Z,13.67
2022-12-11T08:27:45.866Z,11.30
2022-12-11T08:30:16.588Z,13.63
2022-12-11T08:32:46.789Z,11.57
2022-12-11T08:35:19.676Z,13.63
2022-12-11T08:37:50.116Z,11.53
2022-12-11T08:40:20.458Z,13.53
2022-12-11T08:42:51.722Z,13.60
2022-12-11T08:45:21.912Z,10.77
2022-12-11T08:47:53.911Z,14.43
2022-12-11T08:50:26.739Z,12.47
2022-12-11T08:52:57.256Z,13.17
2022-12-11T08:55:27.497Z,13.87
2022-12-11T08:57:57.896Z,12.63
2022-12-11T09:00:28.107Z,12.07
2022-12-11T09:02:58.382Z,11.93
2022-12-11T09:05:36.019Z,12.93
2022-12-11T09:08:07.235Z,11.00
2022-12-11T09:10:37.759Z,12.90
2022-12-11T09:13:09.932Z,11.83
2022-12-11T09:15:43.288Z,14.37
2022-12-11T09:18:13.517Z,11.20
2022-12-11T09:20:46.331Z,11.83
2022-12-11T09:23:16.535Z,12.17
2022-12-11T09:25:46.775Z,13.67
2022-12-11T09:28:17.426Z,21.80
2022-12-11T09:30:47.708Z,11.57
2022-12-11T09:33:17.998Z,12.70
2022-12-11T09:36:00.002Z,10.73
2022-12-11T09:38:31.026Z,10.50
2022-12-11T09:41:01.879Z,10.93
2022-12-11T09:43:36.916Z,11.63
2022-12-11T09:46:08.783Z,16.73
2022-12-11T09:48:39.232Z,11.90
2022-12-11T09:51:16.685Z,13.50
2022-12-11T09:53:46.883Z,12.27
2022-12-11T09:56:20.263Z,12.33
2022-12-11T09:58:58.706Z,11.10
2022-12-11T10:01:38.981Z,12.20
2022-12-11T10:04:29.615Z,10.13
2022-12-11T10:07:12.243Z,8.77
2022-12-11T10:09:50.151Z,9.27
2022-12-11T10:12:37.978Z,10.63
2022-12-11T10:15:26.963Z,10.03
2022-12-11T10:18:04.697Z,9.00
2022-12-11T10:20:39.491Z,8.30
2022-12-11T10:23:18.242Z,9.68
2022-12-11T10:25:52.739Z,9.93
2022-12-11T10:30:58.901Z,8.10
2022-12-11T10:33:31.191Z,7.50
2022-12-11T10:36:01.750Z,7.17
2022-12-11T10:38:35.312Z,7.97
2022-12-11T10:41:08.350Z,7.03
2022-12-11T10:43:40.338Z,8.73
2022-12-11T10:46:19.929Z,8.83
2022-12-11T10:48:50.700Z,7.07
2022-12-11T10:51:21.072Z,6.93
2022-12-11T10:54:02.642Z,7.80
2022-12-11T10:56:38.046Z,6.38
2022-12-11T10:59:08.467Z,6.70
2022-12-11T11:01:39.319Z,7.33
2022-12-11T11:04:10.996Z,6.53
2022-12-11T11:06:41.233Z,6.23
2022-12-11T11:09:27.331Z,7.20
2022-12-11T11:12:05.985Z,6.47
2022-12-11T11:14:38.013Z,7.00
2022-12-11T11:17:08.295Z,6.80
2022-12-11T11:19:39.446Z,6.03
2022-12-11T11:22:11.362Z,6.97
2022-12-11T11:24:45.252Z,7.33
2022-12-11T11:27:28.288Z,6.75
2022-12-11T11:30:00.017Z,6.47
2022-12-11T11:32:34.173Z,6.27
2022-12-11T11:35:21.570Z,5.60
2022-12-11T11:37:58.264Z,6.13
2022-12-11T11:40:30.544Z,6.80
2022-12-11T11:43:12.800Z,6.87
2022-12-11T11:45:46.788Z,7.30
2022-12-11T11:48:22.613Z,8.65
2022-12-11T11:50:53.955Z,8.37
2022-12-11T11:53:26.742Z,8.53
2022-12-11T11:56:02.144Z,8.57
2022-12-11T11:58:40.614Z,7.50
2022-12-11T12:01:17.523Z,10.17
2022-12-11T12:03:49.656Z,7.67
2022-12-11T12:06:24.173Z,7.40
2022-12-11T12:09:02.519Z,8.37
2022-12-11T12:11:37.679Z,7.93
2022-12-11T12:14:51.275Z,8.30
2022-12-11T12:17:22.381Z,7.73
2022-12-11T12:19:56.111Z,7.10
2022-12-11T12:22:42.770Z,9.43
2022-12-11T12:25:19.449Z,8.50
2022-12-11T12:27:53.916Z,6.97
2022-12-11T12:30:26.791Z,7.73
2022-12-11T12:33:01.538Z,7.30
2022-12-11T12:35:38.491Z,7.73
2022-12-11T12:38:18.022Z,7.70
2022-12-11T12:41:01.597Z,7.33
2022-12-11T12:43:49.727Z,12.17
2022-12-11T12:46:31.160Z,7.67
2022-12-11T12:49:02.479Z,7.47
2022-12-11T12:51:33.313Z,8.73
2022-12-11T12:54:10.672Z,8.20
2022-12-11T12:56:43.776Z,7.47
2022-12-11T12:59:22.255Z,7.00
2022-12-11T13:01:58.566Z,5.83
2022-12-11T13:04:58.173Z,6.90
2022-12-11T13:07:31.409Z,6.87
2022-12-11T13:10:04.404Z,5.37
2022-12-11T13:12:37.703Z,6.57
2022-12-11T13:15:25.761Z,6.90
2022-12-11T13:17:58.998Z,7.20
2022-12-11T13:20:30.691Z,5.30
2022-12-11T13:23:20.271Z,4.67
2022-12-11T13:25:54.042Z,6.37
2022-12-11T13:28:28.405Z,4.57
2022-12-11T13:33:47.094Z,4.00
2022-12-11T13:36:34.060Z,6.73
2022-12-11T13:39:07.560Z,4.70
2022-12-11T13:41:40.308Z,4.53
2022-12-11T13:44:10.889Z,5.37
2022-12-11T13:46:42.151Z,5.17
2022-12-11T13:49:24.563Z,5.80
2022-12-11T13:51:56.457Z,5.30
2022-12-11T13:54:26.688Z,4.97
2022-12-11T13:57:01.959Z,5.90
2022-12-11T13:59:35.358Z,5.30
2022-12-11T14:02:15.173Z,6.73
2022-12-11T14:04:48.669Z,5.50
2022-12-11T14:07:23.287Z,5.33
2022-12-11T14:09:54.068Z,6.50
2022-12-11T14:12:24.979Z,4.70
2022-12-11T14:14:58.355Z,5.47
2022-12-11T14:17:30.682Z,5.90
2022-12-11T14:20:10.557Z,4.87
2022-12-11T14:22:41.037Z,4.90
2022-12-11T14:25:23.167Z,5.77
2022-12-11T14:27:56.272Z,5.80
2022-12-11T14:30:28.254Z,5.07
2022-12-11T14:33:00.938Z,5.73
2022-12-11T14:35:39.192Z,4.73
2022-12-11T14:38:18.274Z,5.87
2022-12-11T14:40:52.673Z,5.43
2022-12-11T14:43:28.678Z,6.40
2022-12-11T14:46:03.205Z,4.17
2022-12-11T14:48:38.864Z,5.17
2022-12-11T14:51:16.217Z,5.40
2022-12-11T14:53:50.792Z,4.90
2022-12-11T14:56:23.663Z,5.97
2022-12-11T14:58:59.595Z,5.63
2022-12-11T15:01:32.525Z,4.93
2022-12-11T15:04:08.999Z,6.93
2022-12-11T15:06:47.886Z,6.03
2022-12-11T15:09:22.776Z,5.47
2022-12-11T15:11:54.262Z,5.07
2022-12-11T15:14:26.621Z,5.43
2022-12-11T15:16:59.581Z,5.23
2022-12-11T15:19:34.137Z,4.73
2022-12-11T15:24:42.484Z,5.35
2022-12-11T15:27:25.774Z,19.23
2022-12-11T15:29:56.908Z,5.47
2022-12-11T15:32:27.053Z,8.13
2022-12-11T15:34:59.401Z,5.17
2022-12-11T15:37:36.135Z,4.67
2022-12-11T15:40:07.897Z,14.60
2022-12-11T15:42:39.937Z,5.53
2022-12-11T15:45:12.207Z,8.07
2022-12-11T15:47:43.500Z,5.23
2022-12-11T15:50:19.264Z,7.33
2022-12-11T15:52:53.181Z,4.53
2022-12-11T15:55:25.062Z,4.63
2022-12-11T15:57:57.995Z,8.47
2022-12-11T16:00:28.693Z,6.33
2022-12-11T16:02:59.659Z,6.40
2022-12-11T16:05:30.396Z,10.97
2022-12-11T16:08:03.097Z,7.17
2022-12-11T16:10:33.341Z,11.47
2022-12-11T16:13:03.716Z,8.33
2022-12-11T16:15:34.188Z,8.87
2022-12-11T16:18:05.752Z,7.37
2022-12-11T16:20:36.759Z,6.57
2022-12-11T16:23:10.259Z,7.17
2022-12-11T16:25:41.338Z,7.18
2022-12-11T16:28:13.149Z,9.70
2022-12-11T16:30:43.881Z,8.20
2022-12-11T16:33:14.540Z,8.73
2022-12-11T16:35:45.348Z,7.63
2022-12-11T16:38:20.025Z,8.30
2022-12-11T16:40:50.888Z,7.67
2022-12-11T16:43:21.059Z,8.60
2022-12-11T16:45:56.663Z,9.80
2022-12-11T16:48:27.665Z,8.93
2022-12-11T16:50:59.690Z,10.07
2022-12-11T16:53:32.262Z,9.10
2022-12-11T16:56:02.534Z,9.37
2022-12-11T16:58:32.806Z,8.10
2022-12-11T17:01:04.732Z,7.27
2022-12-11T17:03:35.246Z,8.10
2022-12-11T17:06:09.753Z,8.87
2022-12-11T17:11:15.272Z,9.87
2022-12-11T17:13:45.784Z,9.47
2022-12-11T17:16:18.452Z,10.90
2022-12-11T17:18:48.408Z,9.80
2022-12-11T17:21:20.872Z,8.60
2022-12-11T17:23:53.778Z,8.30
2022-12-11T17:26:25.293Z,10.30
2022-12-11T17:28:55.693Z,8.93
2022-12-11T17:31:25.902Z,8.90
2022-12-11T17:33:57.371Z,10.07
2022-12-11T17:36:27.569Z,9.17
2022-12-11T17:39:00.511Z,11.00
2022-12-11T17:41:30.712Z,10.13
2022-12-11T17:44:01.019Z,9.43
2022-12-11T17:46:31.325Z,9.80
2022-12-11T17:49:01.941Z,8.87
2022-12-11T17:51:32.169Z,12.27
2022-12-11T17:54:04.821Z,8.53
2022-12-11T17:56:36.300Z,13.50
2022-12-11T17:59:06.674Z,11.80
2022-12-11T18:01:36.629Z,9.70
2022-12-11T18:04:07.116Z,11.23
2022-12-11T18:06:37.730Z,10.53
2022-12-11T18:09:11.326Z,10.27
2022-12-11T18:11:41.565Z,11.52
2022-12-11T18:14:16.944Z,9.67
2022-12-11T18:16:48.538Z,10.47
2022-12-11T18:19:19.565Z,20.60
2022-12-11T18:21:49.639Z,9.67
2022-12-11T18:24:22.649Z,8.80
2022-12-11T18:26:52.852Z,11.00
2022-12-11T18:29:24.067Z,9.40
2022-12-11T18:31:54.446Z,11.03
2022-12-11T18:34:24.808Z,11.73
2022-12-11T18:36:55.149Z,9.70
2022-12-11T18:39:27.890Z,10.30
2022-12-11T18:42:30.667Z,10.07
2022-12-11T18:44:48.672Z,9.67
2022-12-11T18:47:18.963Z,10.27
2022-12-11T18:49:49.399Z,12.33
2022-12-11T18:52:19.706Z,13.97
2022-12-11T18:54:52.449Z,12.20
2022-12-11T18:57:22.696Z,10.23
2022-12-11T18:59:54.190Z,23.63
2022-12-11T19:02:25.073Z,14.83
2022-12-11T19:04:55.455Z,23.27
2022-12-11T19:07:25.961Z,10.83
2022-12-11T19:09:58.627Z,11.73
2022-12-11T19:12:29.020Z,23.87
2022-12-11T19:14:59.250Z,18.17
2022-12-11T19:17:29.690Z,21.60
2022-12-11T19:20:05.262Z,15.40
2022-12-11T19:22:49.495Z,16.97
2022-12-11T19:25:22.211Z,15.10
2022-12-11T19:27:52.524Z,18.90
2022-12-11T19:30:22.864Z,15.80
2022-12-11T19:32:53.552Z,16.27
2022-12-11T19:35:23.906Z,20.70
2022-12-11T19:37:54.497Z,17.43
2022-12-11T19:40:27.276Z,11.40
2022-12-11T19:42:57.779Z,18.67
2022-12-11T19:45:28.115Z,15.37
2022-12-11T19:47:58.372Z,16.73
2022-12-11T19:50:28.289Z,17.50
2022-12-11T19:52:58.166Z,20.40
2022-12-11T19:55:30.743Z,12.97
2022-12-11T19:58:01.082Z,16.23
2022-12-11T20:00:31.289Z,15.37
2022-12-11T20:03:01.514Z,13.43
2022-12-11T20:05:31.521Z,21.47
2022-12-11T20:08:27.322Z,18.50
2022-12-11T20:10:54.556Z,20.77
2022-12-11T20:13:24.699Z,18.13
2022-12-11T20:15:54.770Z,19.70
2022-12-11T20:18:25.060Z,16.53
2022-12-11T20:20:55.049Z,19.00
2022-12-11T20:23:24.997Z,18.50
2022-12-11T20:25:59.059Z,16.57
2022-12-11T20:28:29.528Z,15.88
2022-12-11T20:31:06.706Z,15.00
2022-12-11T20:33:36.945Z,15.30
2022-12-11T20:36:10.301Z,15.57
2022-12-11T20:38:40.440Z,15.40
2022-12-11T20:41:15.373Z,14.53
2022-12-11T20:43:46.008Z,15.57
2022-12-11T20:46:18.487Z,15.90
2022-12-11T20:48:48.904Z,14.83
2022-12-11T20:51:25.798Z,13.37
2022-12-11T20:53:59.300Z,13.83
2022-12-11T20:56:33.928Z,15.88
2022-12-11T20:59:04.173Z,15.32
2022-12-11T21:01:35.680Z,14.33
2022-12-11T21:04:05.889Z,16.07
2022-12-11T21:06:38.728Z,14.80
2022-12-11T21:09:12.329Z,14.00
2022-12-11T21:11:44.850Z,13.45
2022-12-11T21:14:15.749Z,11.53
2022-12-11T21:16:45.917Z,13.13
2022-12-11T21:19:17.415Z,13.07
2022-12-11T21:21:48.028Z,13.70
2022-12-11T21:24:20.235Z,19.20
2022-12-11T21:26:55.195Z,16.10
2022-12-11T21:29:25.395Z,17.77
2022-12-11T21:31:55.765Z,16.03
2022-12-11T21:34:26.048Z,16.67
2022-12-11T21:36:59.787Z,13.43
2022-12-11T21:39:36.062Z,12.55
2022-12-11T21:42:11.629Z,13.37
2022-12-11T21:45:31.383Z,12.00
2022-12-11T21:47:31.416Z,11.97
2022-12-11T21:50:01.353Z,12.93
2022-12-11T21:52:31.586Z,12.43
2022-12-11T21:55:01.460Z,12.03
2022-12-11T21:57:34.025Z,12.03
2022-12-11T22:00:05.564Z,10.95
2022-12-11T22:02:42.193Z,12.43
2022-12-11T22:05:12.800Z,11.17
2022-12-11T22:07:42.848Z,12.30
2022-12-11T22:10:13.502Z,11.30
2022-12-11T22:12:46.188Z,9.97
2022-12-11T22:15:16.141Z,10.10
2022-12-11T22:17:45.974Z,10.27
2022-12-11T22:20:15.989Z,10.37
2022-12-11T22:22:46.735Z,10.93
2022-12-11T22:25:16.697Z,10.60
2022-12-11T22:27:49.166Z,10.40
2022-12-11T22:30:19.329Z,10.20
2022-12-11T22:32:51.344Z,10.80
2022-12-11T22:35:26.886Z,11.73
2022-12-11T22:37:57.198Z,9.03
2022-12-11T22:40:27.257Z,10.20
2022-12-11T22:42:59.776Z,9.93
2022-12-11T22:45:29.701Z,9.90
2022-12-11T22:47:59.704Z,11.03
2022-12-11T22:50:29.538Z,10.13
2022-12-11T22:52:59.382Z,10.20
2022-12-11T22:55:29.266Z,9.53
2022-12-11T22:58:01.827Z,9.73
2022-12-11T23:00:32.204Z,9.87
2022-12-11T23:03:02.451Z,7.80
2022-12-11T23:05:32.468Z,9.70
2022-12-11T23:08:02.419Z,11.03
2022-12-11T23:10:32.351Z,10.13
2022-12-11T23:13:04.767Z,10.23
2022-12-11T23:15:34.906Z,10.27
2022-12-11T23:18:05.334Z,11.07
2022-12-11T23:20:35.214Z,10.17
2022-12-11T23:23:05.395Z,10.90
2022-12-11T23:25:35.576Z,11.53
2022-12-11T23:28:08.237Z,9.50
2022-12-11T23:30:38.159Z,11.27
2022-12-11T23:33:08.711Z,10.10
2022-12-11T23:35:38.701Z,10.13
2022-12-11T23:38:08.733Z,9.93
2022-12-11T23:40:39.429Z,10.30
2022-12-11T23:43:11.907Z,10.57
2022-12-11T23:45:41.877Z,11.60
2022-12-11T23:48:12.660Z,10.80
2022-12-11T23:50:43.047Z,10.17
2022-12-11T23:53:13.525Z,9.07
2022-12-11T23:55:43.962Z,10.10
2022-12-11T23:58:16.465Z,10.07
